Details From PAGY - SKAGWAY
To PAFE - KAKE
Flight Number -
Tags decoded
Created
Modified
Stats Distance 157 nm / 290 km
Max Altitude 0 ft / 0 m
Waypoints 2
Social Downloads 2
Likes 0
Share VATSIM

Download

Looking for another format? Having issues loading an existing format? Contact us
Advertisement - Login to hide

Notes

Requested: PAGY PAFE

Route

PAGY PAFE

ID Type Via Altitude Latitude Longitude Leg Dist Tot Dist Heading (true) Name
O PAGY APT - 0 ft / 0 m 59.46006˚ -135.31566˚ - 0 nm - SKAGWAY
O PAFE APT - 0 ft / 0 m 56.96136˚ -133.91026˚ 156 nm 156 nm 163° / 164° KAKE

Altitude Profile

Advertisement - Login to hide

PAGY

Details ICAO PAGY (SGY)
Name SKAGWAY
Region USA (Alaska)
Timezone America/Juneau (UTC-9.0)
Stats Elevation 44 ft / 13 m (AMSL)
Location 59.460062° -135.315661°
Runways 1
Magnetic Variation 19.352° E

METAR

PAGY 110353Z AUTO VRB05KT 10SM -RA OVC037 06/03 A2996 RMK SLP145 P0003 T00610028 TSNO $ VIA AUTODIAL

Decode

TAF

TAF PAGY 102338Z 1100/1124 VRB04KT P6SM SCT040 BKN140 FM110400 03005KT P6SM -RA OVC040 FM110700 04005KT 5SM RA BR OVC025 FM110900 19015KT 4SM RA BR OVC025 FM112100 19007KT 6SM -RA BR SCT015 OVC035 AMD LTD TO CLD VIS AND WIND

Decode

Departure Runways

ID Width Length Bearing (true) Bearing (mag) Surface Threshold Offset Overrun Length
02 75 ft / 23 m 3,542 ft / 1,080 m 43.94° 24.59° Asphalt 0 ft / 0 m 299 ft / 91 m
20 75 ft / 23 m 3,542 ft / 1,080 m 223.95° 204.60° Asphalt 0 ft / 0 m 299 ft / 91 m

PAFE

Details ICAO PAFE (AFE)
Name KAKE
Region USA (Alaska)
Timezone America/Juneau (UTC-9.0)
Stats Elevation 172 ft / 52 m (AMSL)
Location 56.961362° -133.910261°
Runways 1
Magnetic Variation 18.853° E

METAR

PAFE 110356Z AUTO 11006KT 6SM -RA BR 09/08 A2993 RMK AO2 SLP149 P0011 T00890078

Decode

TAF

Not found

Destination Runways

ID Width Length Bearing (true) Bearing (mag) Surface Threshold Offset Overrun Length
10 100 ft / 30 m 3,990 ft / 1,216 m 129.93° 111.08° Asphalt 0 ft / 0 m 295 ft / 90 m
28 100 ft / 30 m 3,990 ft / 1,216 m 309.94° 291.09° Asphalt 1,000 ft / 305 m 295 ft / 90 m